sensor_id;sensor_type;location;lat;lon;timestamp;P1;durP1;ratioP1;P2;durP2;ratioP2
5690;SDS011;2870;42.680;23.364;2023-02-15T00:00:54;41.33;;;23.90;;
5690;SDS011;2870;42.680;23.364;2023-02-15T00:03:21;37.33;;;21.13;;
5690;SDS011;2870;42.680;23.364;2023-02-15T00:05:48;40.00;;;22.93;;
5690;SDS011;2870;42.680;23.364;2023-02-15T00:08:15;38.57;;;23.07;;
5690;SDS011;2870;42.680;23.364;2023-02-15T00:10:42;38.93;;;22.03;;
5690;SDS011;2870;42.680;23.364;2023-02-15T00:13:10;41.97;;;23.40;;
5690;SDS011;2870;42.680;23.364;2023-02-15T00:15:37;44.93;;;23.77;;
5690;SDS011;2870;42.680;23.364;2023-02-15T00:18:03;36.83;;;22.90;;
5690;SDS011;2870;42.680;23.364;2023-02-15T00:20:30;36.50;;;22.00;;
5690;SDS011;2870;42.680;23.364;2023-02-15T00:22:58;43.00;;;23.00;;
5690;SDS011;2870;42.680;23.364;2023-02-15T00:25:24;37.55;;;22.08;;
5690;SDS011;2870;42.680;23.364;2023-02-15T00:27:51;38.80;;;23.67;;
5690;SDS011;2870;42.680;23.364;2023-02-15T00:30:19;41.90;;;22.00;;
5690;SDS011;2870;42.680;23.364;2023-02-15T00:32:47;44.20;;;23.40;;
5690;SDS011;2870;42.680;23.364;2023-02-15T00:35:13;41.23;;;23.70;;
5690;SDS011;2870;42.680;23.364;2023-02-15T00:37:41;42.80;;;24.10;;
5690;SDS011;2870;42.680;23.364;2023-02-15T00:40:08;39.60;;;22.67;;
5690;SDS011;2870;42.680;23.364;2023-02-15T00:42:35;47.87;;;25.90;;
5690;SDS011;2870;42.680;23.364;2023-02-15T00:45:02;39.33;;;22.43;;
5690;SDS011;2870;42.680;23.364;2023-02-15T00:47:31;43.10;;;24.00;;
5690;SDS011;2870;42.680;23.364;2023-02-15T00:49:58;42.60;;;23.80;;
5690;SDS011;2870;42.680;23.364;2023-02-15T00:52:25;37.23;;;21.27;;
5690;SDS011;2870;42.680;23.364;2023-02-15T00:54:51;41.10;;;22.83;;
5690;SDS011;2870;42.680;23.364;2023-02-15T00:57:18;43.70;;;23.40;;
5690;SDS011;2870;42.680;23.364;2023-02-15T00:59:45;37.50;;;21.30;;
5690;SDS011;2870;42.680;23.364;2023-02-15T01:02:12;47.87;;;23.77;;
5690;SDS011;2870;42.680;23.364;2023-02-15T01:04:40;36.97;;;21.33;;
5690;SDS011;2870;42.680;23.364;2023-02-15T01:07:06;36.97;;;21.27;;
5690;SDS011;2870;42.680;23.364;2023-02-15T01:09:33;36.10;;;21.10;;
5690;SDS011;2870;42.680;23.364;2023-02-15T01:12:00;39.57;;;21.67;;
5690;SDS011;2870;42.680;23.364;2023-02-15T01:14:27;37.63;;;21.20;;
5690;SDS011;2870;42.680;23.364;2023-02-15T01:16:54;38.77;;;22.50;;
5690;SDS011;2870;42.680;23.364;2023-02-15T01:19:21;38.77;;;21.73;;
5690;SDS011;2870;42.680;23.364;2023-02-15T01:21:49;32.50;;;21.40;;
5690;SDS011;2870;42.680;23.364;2023-02-15T01:24:16;36.30;;;21.20;;
5690;SDS011;2870;42.680;23.364;2023-02-15T01:26:43;38.63;;;21.20;;
5690;SDS011;2870;42.680;23.364;2023-02-15T01:29:09;36.70;;;21.40;;
5690;SDS011;2870;42.680;23.364;2023-02-15T01:31:36;34.50;;;20.50;;
5690;SDS011;2870;42.680;23.364;2023-02-15T01:34:04;38.43;;;21.30;;
5690;SDS011;2870;42.680;23.364;2023-02-15T01:36:30;37.70;;;21.27;;
5690;SDS011;2870;42.680;23.364;2023-02-15T01:39:01;32.77;;;20.90;;
5690;SDS011;2870;42.680;23.364;2023-02-15T01:41:28;41.97;;;22.87;;
5690;SDS011;2870;42.680;23.364;2023-02-15T01:43:56;35.60;;;20.37;;
5690;SDS011;2870;42.680;23.364;2023-02-15T01:46:26;39.10;;;20.30;;
5690;SDS011;2870;42.680;23.364;2023-02-15T01:49:00;40.90;;;22.00;;
5690;SDS011;2870;42.680;23.364;2023-02-15T01:51:33;42.03;;;23.50;;
5690;SDS011;2870;42.680;23.364;2023-02-15T01:54:05;36.10;;;21.07;;
5690;SDS011;2870;42.680;23.364;2023-02-15T01:56:37;33.93;;;19.70;;
5690;SDS011;2870;42.680;23.364;2023-02-15T01:59:06;33.47;;;21.30;;
5690;SDS011;2870;42.680;23.364;2023-02-15T02:01:35;40.57;;;21.70;;
5690;SDS011;2870;42.680;23.364;2023-02-15T02:04:05;38.80;;;21.77;;
5690;SDS011;2870;42.680;23.364;2023-02-15T02:06:38;35.67;;;20.83;;
5690;SDS011;2870;42.680;23.364;2023-02-15T02:09:07;36.60;;;21.90;;
5690;SDS011;2870;42.680;23.364;2023-02-15T02:11:35;35.37;;;20.93;;
5690;SDS011;2870;42.680;23.364;2023-02-15T02:14:02;33.67;;;21.53;;
5690;SDS011;2870;42.680;23.364;2023-02-15T02:16:30;35.87;;;19.57;;
5690;SDS011;2870;42.680;23.364;2023-02-15T02:19:10;39.07;;;22.43;;
5690;SDS011;2870;42.680;23.364;2023-02-15T02:22:02;33.97;;;20.37;;
5690;SDS011;2870;42.680;23.364;2023-02-15T02:24:52;37.37;;;21.20;;
5690;SDS011;2870;42.680;23.364;2023-02-15T02:27:42;37.07;;;21.30;;
5690;SDS011;2870;42.680;23.364;2023-02-15T02:30:19;37.67;;;22.10;;
5690;SDS011;2870;42.680;23.364;2023-02-15T02:33:19;36.37;;;20.47;;
5690;SDS011;2870;42.680;23.364;2023-02-15T02:35:56;31.83;;;20.73;;
5690;SDS011;2870;42.680;23.364;2023-02-15T02:38:31;32.07;;;19.50;;
5690;SDS011;2870;42.680;23.364;2023-02-15T02:41:07;36.20;;;19.47;;
5690;SDS011;2870;42.680;23.364;2023-02-15T02:43:41;36.83;;;20.40;;
5690;SDS011;2870;42.680;23.364;2023-02-15T02:46:15;39.65;;;22.17;;
5690;SDS011;2870;42.680;23.364;2023-02-15T02:48:54;31.30;;;20.50;;
5690;SDS011;2870;42.680;23.364;2023-02-15T02:51:22;37.70;;;20.20;;
5690;SDS011;2870;42.680;23.364;2023-02-15T02:53:50;32.17;;;19.50;;
5690;SDS011;2870;42.680;23.364;2023-02-15T02:56:22;29.80;;;19.10;;
5690;SDS011;2870;42.680;23.364;2023-02-15T02:58:54;33.23;;;20.87;;
5690;SDS011;2870;42.680;23.364;2023-02-15T03:01:26;33.40;;;20.30;;
5690;SDS011;2870;42.680;23.364;2023-02-15T03:03:57;35.30;;;19.97;;
5690;SDS011;2870;42.680;23.364;2023-02-15T03:06:28;32.42;;;20.17;;
5690;SDS011;2870;42.680;23.364;2023-02-15T03:09:01;35.03;;;20.00;;
5690;SDS011;2870;42.680;23.364;2023-02-15T03:11:33;36.33;;;22.50;;
5690;SDS011;2870;42.680;23.364;2023-02-15T03:14:00;37.50;;;19.37;;
5690;SDS011;2870;42.680;23.364;2023-02-15T03:16:27;31.17;;;19.20;;
5690;SDS011;2870;42.680;23.364;2023-02-15T03:18:57;34.07;;;20.10;;
5690;SDS011;2870;42.680;23.364;2023-02-15T03:21:31;29.93;;;19.03;;
5690;SDS011;2870;42.680;23.364;2023-02-15T03:24:03;44.53;;;21.93;;
5690;SDS011;2870;42.680;23.364;2023-02-15T03:26:34;34.97;;;21.70;;
5690;SDS011;2870;42.680;23.364;2023-02-15T03:29:02;29.80;;;17.37;;
5690;SDS011;2870;42.680;23.364;2023-02-15T03:31:32;34.07;;;19.27;;
5690;SDS011;2870;42.680;23.364;2023-02-15T03:34:06;35.73;;;19.47;;
5690;SDS011;2870;42.680;23.364;2023-02-15T03:36:37;32.07;;;19.00;;
5690;SDS011;2870;42.680;23.364;2023-02-15T03:39:13;29.30;;;18.60;;
5690;SDS011;2870;42.680;23.364;2023-02-15T03:41:48;34.90;;;20.50;;
5690;SDS011;2870;42.680;23.364;2023-02-15T03:44:23;33.70;;;19.93;;
5690;SDS011;2870;42.680;23.364;2023-02-15T03:46:56;36.33;;;19.93;;
5690;SDS011;2870;42.680;23.364;2023-02-15T03:49:30;31.17;;;19.20;;
5690;SDS011;2870;42.680;23.364;2023-02-15T03:52:04;30.70;;;18.83;;
5690;SDS011;2870;42.680;23.364;2023-02-15T03:54:34;30.53;;;18.67;;
5690;SDS011;2870;42.680;23.364;2023-02-15T03:57:16;32.30;;;18.00;;
5690;SDS011;2870;42.680;23.364;2023-02-15T04:00:03;29.20;;;18.03;;
5690;SDS011;2870;42.680;23.364;2023-02-15T04:03:00;32.90;;;19.63;;
5690;SDS011;2870;42.680;23.364;2023-02-15T04:05:37;28.50;;;18.97;;
5690;SDS011;2870;42.680;23.364;2023-02-15T04:08:04;31.30;;;18.40;;
5690;SDS011;2870;42.680;23.364;2023-02-15T04:10:31;31.77;;;18.67;;
5690;SDS011;2870;42.680;23.364;2023-02-15T04:13:15;35.87;;;19.70;;
5690;SDS011;2870;42.680;23.364;2023-02-15T04:15:42;28.97;;;18.00;;
5690;SDS011;2870;42.680;23.364;2023-02-15T04:18:27;32.63;;;19.30;;
5690;SDS011;2870;42.680;23.364;2023-02-15T04:21:13;31.40;;;19.60;;
5690;SDS011;2870;42.680;23.364;2023-02-15T04:23:57;29.07;;;19.17;;
5690;SDS011;2870;42.680;23.364;2023-02-15T04:26:41;30.70;;;18.80;;
5690;SDS011;2870;42.680;23.364;2023-02-15T04:29:08;29.17;;;19.23;;
5690;SDS011;2870;42.680;23.364;2023-02-15T04:31:35;35.67;;;20.00;;
5690;SDS011;2870;42.680;23.364;2023-02-15T04:34:01;31.47;;;17.70;;
5690;SDS011;2870;42.680;23.364;2023-02-15T04:36:29;35.20;;;19.70;;
5690;SDS011;2870;42.680;23.364;2023-02-15T04:38:56;32.60;;;19.20;;
5690;SDS011;2870;42.680;23.364;2023-02-15T04:41:23;38.87;;;20.67;;
5690;SDS011;2870;42.680;23.364;2023-02-15T04:43:50;33.07;;;18.33;;
5690;SDS011;2870;42.680;23.364;2023-02-15T04:46:16;32.67;;;19.07;;
5690;SDS011;2870;42.680;23.364;2023-02-15T04:48:43;32.07;;;19.23;;
5690;SDS011;2870;42.680;23.364;2023-02-15T04:51:10;29.90;;;19.20;;
5690;SDS011;2870;42.680;23.364;2023-02-15T04:53:39;32.63;;;20.00;;
5690;SDS011;2870;42.680;23.364;2023-02-15T04:56:06;33.80;;;20.87;;
5690;SDS011;2870;42.680;23.364;2023-02-15T04:58:33;32.50;;;19.80;;
5690;SDS011;2870;42.680;23.364;2023-02-15T05:01:00;29.00;;;18.30;;
5690;SDS011;2870;42.680;23.364;2023-02-15T05:03:27;30.07;;;19.37;;
5690;SDS011;2870;42.680;23.364;2023-02-15T05:05:53;33.03;;;19.20;;
5690;SDS011;2870;42.680;23.364;2023-02-15T05:08:20;28.57;;;19.47;;
5690;SDS011;2870;42.680;23.364;2023-02-15T05:10:48;32.60;;;20.20;;
5690;SDS011;2870;42.680;23.364;2023-02-15T05:13:15;31.67;;;19.37;;
5690;SDS011;2870;42.680;23.364;2023-02-15T05:15:46;32.17;;;18.97;;
5690;SDS011;2870;42.680;23.364;2023-02-15T05:18:13;34.90;;;20.97;;
5690;SDS011;2870;42.680;23.364;2023-02-15T05:20:41;28.27;;;17.87;;
5690;SDS011;2870;42.680;23.364;2023-02-15T05:23:07;30.53;;;18.30;;
5690;SDS011;2870;42.680;23.364;2023-02-15T05:25:34;37.40;;;21.20;;
5690;SDS011;2870;42.680;23.364;2023-02-15T05:28:20;30.07;;;17.83;;
5690;SDS011;2870;42.680;23.364;2023-02-15T05:30:48;47.10;;;30.87;;
5690;SDS011;2870;42.680;23.364;2023-02-15T05:33:16;33.27;;;20.20;;
5690;SDS011;2870;42.680;23.364;2023-02-15T05:35:43;29.87;;;18.67;;
5690;SDS011;2870;42.680;23.364;2023-02-15T05:38:10;29.77;;;19.20;;
5690;SDS011;2870;42.680;23.364;2023-02-15T05:40:37;32.67;;;20.30;;
5690;SDS011;2870;42.680;23.364;2023-02-15T05:43:03;32.03;;;18.47;;
5690;SDS011;2870;42.680;23.364;2023-02-15T05:45:31;34.60;;;20.70;;
5690;SDS011;2870;42.680;23.364;2023-02-15T05:47:58;31.40;;;18.30;;
5690;SDS011;2870;42.680;23.364;2023-02-15T05:50:25;30.77;;;19.70;;
5690;SDS011;2870;42.680;23.364;2023-02-15T05:52:52;33.67;;;20.90;;
5690;SDS011;2870;42.680;23.364;2023-02-15T05:55:19;34.30;;;19.93;;
5690;SDS011;2870;42.680;23.364;2023-02-15T05:57:46;34.33;;;19.13;;
5690;SDS011;2870;42.680;23.364;2023-02-15T06:00:13;35.00;;;18.23;;
5690;SDS011;2870;42.680;23.364;2023-02-15T06:02:42;33.10;;;19.90;;
5690;SDS011;2870;42.680;23.364;2023-02-15T06:05:08;38.33;;;20.10;;
5690;SDS011;2870;42.680;23.364;2023-02-15T06:07:35;33.20;;;19.40;;
5690;SDS011;2870;42.680;23.364;2023-02-15T06:10:02;36.10;;;20.80;;
5690;SDS011;2870;42.680;23.364;2023-02-15T06:12:29;32.97;;;20.13;;
5690;SDS011;2870;42.680;23.364;2023-02-15T06:14:56;30.73;;;19.00;;
5690;SDS011;2870;42.680;23.364;2023-02-15T06:17:23;31.00;;;18.20;;
5690;SDS011;2870;42.680;23.364;2023-02-15T06:19:51;28.33;;;18.10;;
5690;SDS011;2870;42.680;23.364;2023-02-15T06:22:18;34.60;;;19.77;;
5690;SDS011;2870;42.680;23.364;2023-02-15T06:24:45;36.40;;;21.40;;
5690;SDS011;2870;42.680;23.364;2023-02-15T06:27:12;32.80;;;19.00;;
5690;SDS011;2870;42.680;23.364;2023-02-15T06:29:39;27.33;;;18.40;;
5690;SDS011;2870;42.680;23.364;2023-02-15T06:32:05;32.63;;;18.80;;
5690;SDS011;2870;42.680;23.364;2023-02-15T06:34:32;39.70;;;19.20;;
5690;SDS011;2870;42.680;23.364;2023-02-15T06:37:00;32.83;;;18.13;;
5690;SDS011;2870;42.680;23.364;2023-02-15T06:39:27;31.90;;;20.80;;
5690;SDS011;2870;42.680;23.364;2023-02-15T06:41:54;35.13;;;17.60;;
5690;SDS011;2870;42.680;23.364;2023-02-15T06:44:21;33.50;;;19.33;;
5690;SDS011;2870;42.680;23.364;2023-02-15T06:46:48;31.33;;;17.87;;
5690;SDS011;2870;42.680;23.364;2023-02-15T06:49:14;26.93;;;16.30;;
5690;SDS011;2870;42.680;23.364;2023-02-15T06:51:41;29.03;;;17.77;;
5690;SDS011;2870;42.680;23.364;2023-02-15T06:54:09;33.10;;;19.70;;
5690;SDS011;2870;42.680;23.364;2023-02-15T06:56:36;33.87;;;18.17;;
5690;SDS011;2870;42.680;23.364;2023-02-15T06:59:03;30.97;;;18.40;;
5690;SDS011;2870;42.680;23.364;2023-02-15T07:01:31;29.90;;;17.73;;
5690;SDS011;2870;42.680;23.364;2023-02-15T07:03:58;27.97;;;17.73;;
5690;SDS011;2870;42.680;23.364;2023-02-15T07:06:25;30.90;;;18.63;;
5690;SDS011;2870;42.680;23.364;2023-02-15T07:08:52;28.47;;;17.63;;
5690;SDS011;2870;42.680;23.364;2023-02-15T07:11:20;29.87;;;17.97;;
5690;SDS011;2870;42.680;23.364;2023-02-15T07:14:04;30.17;;;17.80;;
5690;SDS011;2870;42.680;23.364;2023-02-15T07:16:31;35.57;;;20.20;;
5690;SDS011;2870;42.680;23.364;2023-02-15T07:18:58;28.77;;;17.20;;
5690;SDS011;2870;42.680;23.364;2023-02-15T07:21:24;29.33;;;18.97;;
5690;SDS011;2870;42.680;23.364;2023-02-15T07:23:51;27.73;;;17.27;;
5690;SDS011;2870;42.680;23.364;2023-02-15T07:26:20;31.77;;;17.10;;
5690;SDS011;2870;42.680;23.364;2023-02-15T07:28:46;32.33;;;17.83;;
5690;SDS011;2870;42.680;23.364;2023-02-15T07:31:13;29.63;;;17.70;;
5690;SDS011;2870;42.680;23.364;2023-02-15T07:33:40;41.43;;;17.13;;
5690;SDS011;2870;42.680;23.364;2023-02-15T07:36:07;29.80;;;17.33;;
5690;SDS011;2870;42.680;23.364;2023-02-15T07:38:37;30.00;;;17.83;;
5690;SDS011;2870;42.680;23.364;2023-02-15T07:41:06;31.40;;;16.33;;
5690;SDS011;2870;42.680;23.364;2023-02-15T07:43:35;32.20;;;16.13;;
5690;SDS011;2870;42.680;23.364;2023-02-15T07:46:04;27.63;;;16.47;;
5690;SDS011;2870;42.680;23.364;2023-02-15T07:48:33;27.13;;;16.70;;
5690;SDS011;2870;42.680;23.364;2023-02-15T07:51:02;27.30;;;18.07;;
5690;SDS011;2870;42.680;23.364;2023-02-15T07:53:30;27.03;;;17.50;;
5690;SDS011;2870;42.680;23.364;2023-02-15T07:55:58;29.20;;;17.40;;
5690;SDS011;2870;42.680;23.364;2023-02-15T07:58:25;27.90;;;16.70;;
5690;SDS011;2870;42.680;23.364;2023-02-15T08:01:13;29.47;;;16.30;;
5690;SDS011;2870;42.680;23.364;2023-02-15T08:03:40;23.90;;;16.33;;
5690;SDS011;2870;42.680;23.364;2023-02-15T08:06:07;32.27;;;17.57;;
5690;SDS011;2870;42.680;23.364;2023-02-15T08:08:34;31.13;;;17.90;;
5690;SDS011;2870;42.680;23.364;2023-02-15T08:11:05;29.20;;;17.13;;
5690;SDS011;2870;42.680;23.364;2023-02-15T08:13:51;24.07;;;15.57;;
5690;SDS011;2870;42.680;23.364;2023-02-15T08:16:23;27.00;;;15.80;;
5690;SDS011;2870;42.680;23.364;2023-02-15T08:18:51;30.70;;;17.77;;
5690;SDS011;2870;42.680;23.364;2023-02-15T08:21:18;30.00;;;17.53;;
5690;SDS011;2870;42.680;23.364;2023-02-15T08:23:46;26.37;;;16.37;;
5690;SDS011;2870;42.680;23.364;2023-02-15T08:26:13;27.70;;;17.47;;
5690;SDS011;2870;42.680;23.364;2023-02-15T08:28:41;28.60;;;17.73;;
5690;SDS011;2870;42.680;23.364;2023-02-15T08:31:09;37.00;;;20.03;;
5690;SDS011;2870;42.680;23.364;2023-02-15T08:33:39;28.10;;;15.13;;
5690;SDS011;2870;42.680;23.364;2023-02-15T08:36:07;24.87;;;16.00;;
5690;SDS011;2870;42.680;23.364;2023-02-15T08:38:36;34.27;;;16.03;;
5690;SDS011;2870;42.680;23.364;2023-02-15T08:41:14;24.10;;;16.33;;
5690;SDS011;2870;42.680;23.364;2023-02-15T08:43:42;35.30;;;17.77;;
5690;SDS011;2870;42.680;23.364;2023-02-15T08:46:10;29.07;;;16.93;;
5690;SDS011;2870;42.680;23.364;2023-02-15T08:48:40;32.43;;;17.10;;
5690;SDS011;2870;42.680;23.364;2023-02-15T08:51:08;27.80;;;16.70;;
5690;SDS011;2870;42.680;23.364;2023-02-15T08:53:37;26.73;;;15.80;;
5690;SDS011;2870;42.680;23.364;2023-02-15T08:56:04;25.30;;;16.10;;
5690;SDS011;2870;42.680;23.364;2023-02-15T08:58:32;26.07;;;15.90;;
5690;SDS011;2870;42.680;23.364;2023-02-15T09:00:59;25.47;;;16.10;;
5690;SDS011;2870;42.680;23.364;2023-02-15T09:03:27;28.63;;;15.50;;
5690;SDS011;2870;42.680;23.364;2023-02-15T09:05:59;26.77;;;16.43;;
5690;SDS011;2870;42.680;23.364;2023-02-15T09:08:27;25.50;;;16.57;;
5690;SDS011;2870;42.680;23.364;2023-02-15T09:11:03;24.90;;;15.70;;
5690;SDS011;2870;42.680;23.364;2023-02-15T09:13:31;28.90;;;17.03;;
5690;SDS011;2870;42.680;23.364;2023-02-15T09:15:59;27.90;;;15.40;;
5690;SDS011;2870;42.680;23.364;2023-02-15T09:18:26;24.20;;;15.80;;
5690;SDS011;2870;42.680;23.364;2023-02-15T09:20:53;25.57;;;15.43;;
5690;SDS011;2870;42.680;23.364;2023-02-15T09:23:21;27.60;;;16.10;;
5690;SDS011;2870;42.680;23.364;2023-02-15T09:25:48;26.20;;;17.20;;
5690;SDS011;2870;42.680;23.364;2023-02-15T09:28:15;29.00;;;15.57;;
5690;SDS011;2870;42.680;23.364;2023-02-15T09:30:42;33.50;;;15.63;;
5690;SDS011;2870;42.680;23.364;2023-02-15T09:33:08;29.17;;;16.40;;
5690;SDS011;2870;42.680;23.364;2023-02-15T09:35:35;27.37;;;15.70;;
5690;SDS011;2870;42.680;23.364;2023-02-15T09:38:02;27.17;;;15.73;;
5690;SDS011;2870;42.680;23.364;2023-02-15T09:40:30;26.63;;;15.67;;
5690;SDS011;2870;42.680;23.364;2023-02-15T09:43:11;24.90;;;16.17;;
5690;SDS011;2870;42.680;23.364;2023-02-15T09:45:57;36.80;;;16.87;;
5690;SDS011;2870;42.680;23.364;2023-02-15T09:48:39;25.03;;;15.80;;
5690;SDS011;2870;42.680;23.364;2023-02-15T09:51:13;24.17;;;16.27;;
5690;SDS011;2870;42.680;23.364;2023-02-15T09:53:57;24.80;;;15.40;;
5690;SDS011;2870;42.680;23.364;2023-02-15T09:56:38;28.77;;;17.00;;
5690;SDS011;2870;42.680;23.364;2023-02-15T09:59:13;27.83;;;14.53;;
5690;SDS011;2870;42.680;23.364;2023-02-15T10:01:48;31.47;;;17.37;;
5690;SDS011;2870;42.680;23.364;2023-02-15T10:04:33;23.87;;;15.80;;
5690;SDS011;2870;42.680;23.364;2023-02-15T10:07:13;30.20;;;16.67;;
5690;SDS011;2870;42.680;23.364;2023-02-15T10:10:00;28.80;;;17.73;;
5690;SDS011;2870;42.680;23.364;2023-02-15T10:12:38;29.90;;;17.60;;
5690;SDS011;2870;42.680;23.364;2023-02-15T10:15:27;27.53;;;17.80;;
5690;SDS011;2870;42.680;23.364;2023-02-15T10:18:11;30.43;;;18.50;;
5690;SDS011;2870;42.680;23.364;2023-02-15T10:20:51;30.60;;;17.03;;
5690;SDS011;2870;42.680;23.364;2023-02-15T10:23:34;28.17;;;17.33;;
5690;SDS011;2870;42.680;23.364;2023-02-15T10:26:16;26.13;;;16.73;;
5690;SDS011;2870;42.680;23.364;2023-02-15T10:28:48;27.70;;;16.57;;
5690;SDS011;2870;42.680;23.364;2023-02-15T10:31:20;26.27;;;17.90;;
5690;SDS011;2870;42.680;23.364;2023-02-15T10:33:53;35.20;;;17.60;;
5690;SDS011;2870;42.680;23.364;2023-02-15T10:36:32;32.90;;;17.60;;
5690;SDS011;2870;42.680;23.364;2023-02-15T10:39:17;28.00;;;17.20;;
5690;SDS011;2870;42.680;23.364;2023-02-15T10:41:53;24.27;;;16.37;;
5690;SDS011;2870;42.680;23.364;2023-02-15T10:44:36;28.20;;;16.70;;
5690;SDS011;2870;42.680;23.364;2023-02-15T10:47:32;31.83;;;18.70;;
5690;SDS011;2870;42.680;23.364;2023-02-15T10:50:23;33.33;;;17.77;;
5690;SDS011;2870;42.680;23.364;2023-02-15T10:53:05;28.67;;;15.93;;
5690;SDS011;2870;42.680;23.364;2023-02-15T10:55:47;28.80;;;18.80;;
5690;SDS011;2870;42.680;23.364;2023-02-15T10:58:24;33.43;;;17.67;;
5690;SDS011;2870;42.680;23.364;2023-02-15T11:01:11;33.33;;;19.13;;
5690;SDS011;2870;42.680;23.364;2023-02-15T11:06:49;28.30;;;18.07;;
5690;SDS011;2870;42.680;23.364;2023-02-15T11:09:20;34.20;;;18.00;;
5690;SDS011;2870;42.680;23.364;2023-02-15T11:11:51;30.57;;;18.00;;
5690;SDS011;2870;42.680;23.364;2023-02-15T11:14:22;31.53;;;17.57;;
5690;SDS011;2870;42.680;23.364;2023-02-15T11:17:04;31.10;;;18.73;;
5690;SDS011;2870;42.680;23.364;2023-02-15T11:19:37;35.27;;;20.07;;
5690;SDS011;2870;42.680;23.364;2023-02-15T11:22:09;29.67;;;18.10;;
5690;SDS011;2870;42.680;23.364;2023-02-15T11:24:39;43.10;;;20.30;;
5690;SDS011;2870;42.680;23.364;2023-02-15T11:27:16;30.93;;;19.97;;
5690;SDS011;2870;42.680;23.364;2023-02-15T11:29:50;33.23;;;19.50;;
5690;SDS011;2870;42.680;23.364;2023-02-15T11:32:27;33.80;;;19.20;;
5690;SDS011;2870;42.680;23.364;2023-02-15T11:34:59;32.00;;;20.07;;
5690;SDS011;2870;42.680;23.364;2023-02-15T11:37:31;31.77;;;18.10;;
5690;SDS011;2870;42.680;23.364;2023-02-15T11:40:02;29.73;;;18.83;;
5690;SDS011;2870;42.680;23.364;2023-02-15T11:42:40;27.33;;;17.07;;
5690;SDS011;2870;42.680;23.364;2023-02-15T11:45:14;31.37;;;18.67;;
5690;SDS011;2870;42.680;23.364;2023-02-15T11:47:49;28.30;;;17.97;;
5690;SDS011;2870;42.680;23.364;2023-02-15T11:50:17;31.43;;;19.27;;
5690;SDS011;2870;42.680;23.364;2023-02-15T11:52:48;32.43;;;17.93;;
5690;SDS011;2870;42.680;23.364;2023-02-15T11:55:17;33.97;;;16.70;;
5690;SDS011;2870;42.680;23.364;2023-02-15T11:57:49;25.77;;;16.53;;
5690;SDS011;2870;42.680;23.364;2023-02-15T12:00:24;28.57;;;17.50;;
5690;SDS011;2870;42.680;23.364;2023-02-15T12:03:02;29.93;;;16.33;;
5690;SDS011;2870;42.680;23.364;2023-02-15T12:05:39;28.90;;;19.07;;
5690;SDS011;2870;42.680;23.364;2023-02-15T12:08:10;30.20;;;18.40;;
5690;SDS011;2870;42.680;23.364;2023-02-15T12:10:43;32.90;;;19.47;;
5690;SDS011;2870;42.680;23.364;2023-02-15T12:13:19;33.57;;;20.43;;
5690;SDS011;2870;42.680;23.364;2023-02-15T12:15:47;32.53;;;19.67;;
5690;SDS011;2870;42.680;23.364;2023-02-15T12:18:21;30.50;;;18.97;;
5690;SDS011;2870;42.680;23.364;2023-02-15T12:21:05;31.83;;;17.60;;
5690;SDS011;2870;42.680;23.364;2023-02-15T12:23:34;32.40;;;18.90;;
5690;SDS011;2870;42.680;23.364;2023-02-15T12:26:06;30.93;;;18.37;;
5690;SDS011;2870;42.680;23.364;2023-02-15T12:28:33;45.30;;;18.73;;
5690;SDS011;2870;42.680;23.364;2023-02-15T12:31:03;30.57;;;19.60;;
5690;SDS011;2870;42.680;23.364;2023-02-15T12:33:38;29.30;;;18.13;;
5690;SDS011;2870;42.680;23.364;2023-02-15T12:36:11;24.93;;;17.53;;
5690;SDS011;2870;42.680;23.364;2023-02-15T12:38:42;27.30;;;17.10;;
5690;SDS011;2870;42.680;23.364;2023-02-15T12:41:21;29.80;;;18.87;;
5690;SDS011;2870;42.680;23.364;2023-02-15T12:44:02;36.93;;;17.97;;
5690;SDS011;2870;42.680;23.364;2023-02-15T12:46:31;31.50;;;18.13;;
5690;SDS011;2870;42.680;23.364;2023-02-15T12:49:06;27.50;;;18.40;;
5690;SDS011;2870;42.680;23.364;2023-02-15T12:51:45;31.90;;;19.00;;
5690;SDS011;2870;42.680;23.364;2023-02-15T12:57:12;29.70;;;18.20;;
5690;SDS011;2870;42.680;23.364;2023-02-15T12:59:51;24.70;;;17.17;;
5690;SDS011;2870;42.680;23.364;2023-02-15T13:02:21;29.67;;;16.50;;
5690;SDS011;2870;42.680;23.364;2023-02-15T13:04:52;30.27;;;19.33;;
5690;SDS011;2870;42.680;23.364;2023-02-15T13:07:20;27.40;;;17.93;;
5690;SDS011;2870;42.680;23.364;2023-02-15T13:09:48;27.57;;;17.53;;
5690;SDS011;2870;42.680;23.364;2023-02-15T13:12:17;27.50;;;16.97;;
5690;SDS011;2870;42.680;23.364;2023-02-15T13:14:49;27.33;;;18.27;;
5690;SDS011;2870;42.680;23.364;2023-02-15T13:17:18;28.53;;;17.10;;
5690;SDS011;2870;42.680;23.364;2023-02-15T13:19:56;33.30;;;19.03;;
5690;SDS011;2870;42.680;23.364;2023-02-15T13:22:31;32.60;;;18.57;;
5690;SDS011;2870;42.680;23.364;2023-02-15T13:25:03;29.77;;;18.57;;
5690;SDS011;2870;42.680;23.364;2023-02-15T13:27:35;32.30;;;19.60;;
5690;SDS011;2870;42.680;23.364;2023-02-15T13:30:10;35.90;;;18.17;;
5690;SDS011;2870;42.680;23.364;2023-02-15T13:32:45;34.13;;;18.67;;
5690;SDS011;2870;42.680;23.364;2023-02-15T13:35:19;27.57;;;18.77;;
5690;SDS011;2870;42.680;23.364;2023-02-15T13:37:56;30.03;;;16.97;;
5690;SDS011;2870;42.680;23.364;2023-02-15T13:40:33;28.20;;;17.50;;
5690;SDS011;2870;42.680;23.364;2023-02-15T13:43:05;29.43;;;17.27;;
5690;SDS011;2870;42.680;23.364;2023-02-15T13:45:47;29.17;;;18.00;;
5690;SDS011;2870;42.680;23.364;2023-02-15T13:48:29;30.63;;;18.00;;
5690;SDS011;2870;42.680;23.364;2023-02-15T13:51:07;27.73;;;15.93;;
5690;SDS011;2870;42.680;23.364;2023-02-15T13:53:52;34.27;;;17.20;;
5690;SDS011;2870;42.680;23.364;2023-02-15T13:56:29;28.47;;;18.00;;
5690;SDS011;2870;42.680;23.364;2023-02-15T13:59:18;32.07;;;19.27;;
5690;SDS011;2870;42.680;23.364;2023-02-15T14:01:55;33.60;;;18.47;;
5690;SDS011;2870;42.680;23.364;2023-02-15T14:07:38;39.83;;;17.92;;
5690;SDS011;2870;42.680;23.364;2023-02-15T14:10:22;30.50;;;18.30;;
5690;SDS011;2870;42.680;23.364;2023-02-15T14:15:57;33.40;;;18.87;;
5690;SDS011;2870;42.680;23.364;2023-02-15T14:18:31;35.63;;;19.63;;
5690;SDS011;2870;42.680;23.364;2023-02-15T14:21:06;33.13;;;19.50;;
5690;SDS011;2870;42.680;23.364;2023-02-15T14:23:56;32.93;;;19.33;;
5690;SDS011;2870;42.680;23.364;2023-02-15T14:26:35;34.77;;;20.77;;
5690;SDS011;2870;42.680;23.364;2023-02-15T14:29:16;34.17;;;19.90;;
5690;SDS011;2870;42.680;23.364;2023-02-15T14:31:54;35.20;;;19.87;;
5690;SDS011;2870;42.680;23.364;2023-02-15T14:34:27;32.20;;;20.27;;
5690;SDS011;2870;42.680;23.364;2023-02-15T14:37:00;33.93;;;19.03;;
5690;SDS011;2870;42.680;23.364;2023-02-15T14:39:34;35.53;;;20.40;;
5690;SDS011;2870;42.680;23.364;2023-02-15T14:42:30;35.40;;;19.43;;
5690;SDS011;2870;42.680;23.364;2023-02-15T14:45:06;37.47;;;20.83;;
5690;SDS011;2870;42.680;23.364;2023-02-15T14:47:44;39.93;;;20.10;;
5690;SDS011;2870;42.680;23.364;2023-02-15T14:53:17;31.10;;;19.90;;
5690;SDS011;2870;42.680;23.364;2023-02-15T14:56:26;33.90;;;20.70;;
5690;SDS011;2870;42.680;23.364;2023-02-15T14:59:00;30.40;;;20.23;;
5690;SDS011;2870;42.680;23.364;2023-02-15T15:01:50;31.20;;;20.63;;
5690;SDS011;2870;42.680;23.364;2023-02-15T15:04:22;34.50;;;19.60;;
5690;SDS011;2870;42.680;23.364;2023-02-15T15:07:00;32.13;;;18.70;;
5690;SDS011;2870;42.680;23.364;2023-02-15T15:09:35;31.77;;;20.37;;
5690;SDS011;2870;42.680;23.364;2023-02-15T15:15:09;32.17;;;19.57;;
5690;SDS011;2870;42.680;23.364;2023-02-15T15:17:52;50.03;;;19.40;;
5690;SDS011;2870;42.680;23.364;2023-02-15T15:26:28;30.33;;;19.80;;